sensor_id;sensor_type;location;lat;lon;timestamp;temperature;humidity
810;DHT22;387;48.772;9.186;2023-11-19T00:00:07;9.30;88.10
810;DHT22;387;48.772;9.186;2023-11-19T00:02:40;9.30;88.10
810;DHT22;387;48.772;9.186;2023-11-19T00:05:06;9.30;88.40
810;DHT22;387;48.772;9.186;2023-11-19T00:07:35;9.20;88.70
810;DHT22;387;48.772;9.186;2023-11-19T00:10:01;9.20;88.90
810;DHT22;387;48.772;9.186;2023-11-19T00:12:37;9.20;89.20
810;DHT22;387;48.772;9.186;2023-11-19T00:15:03;9.20;89.50
810;DHT22;387;48.772;9.186;2023-11-19T00:17:29;9.30;89.90
810;DHT22;387;48.772;9.186;2023-11-19T00:19:54;9.20;90.00
810;DHT22;387;48.772;9.186;2023-11-19T00:22:20;9.20;90.20
810;DHT22;387;48.772;9.186;2023-11-19T00:24:47;9.30;90.20
810;DHT22;387;48.772;9.186;2023-11-19T00:27:12;9.30;90.30
810;DHT22;387;48.772;9.186;2023-11-19T00:29:38;9.30;90.40
810;DHT22;387;48.772;9.186;2023-11-19T00:32:04;9.30;90.50
810;DHT22;387;48.772;9.186;2023-11-19T00:34:30;9.30;90.40
810;DHT22;387;48.772;9.186;2023-11-19T00:36:56;9.30;90.50
810;DHT22;387;48.772;9.186;2023-11-19T00:39:22;9.30;90.60
810;DHT22;387;48.772;9.186;2023-11-19T00:41:48;9.30;90.60
810;DHT22;387;48.772;9.186;2023-11-19T00:44:13;9.30;90.60
810;DHT22;387;48.772;9.186;2023-11-19T00:46:39;9.30;90.80
810;DHT22;387;48.772;9.186;2023-11-19T00:49:05;9.40;90.90
810;DHT22;387;48.772;9.186;2023-11-19T00:51:31;9.40;90.90
810;DHT22;387;48.772;9.186;2023-11-19T00:53:57;9.50;91.00
810;DHT22;387;48.772;9.186;2023-11-19T00:56:23;9.50;91.00
810;DHT22;387;48.772;9.186;2023-11-19T00:58:49;9.50;91.00
810;DHT22;387;48.772;9.186;2023-11-19T01:01:15;9.60;90.90
810;DHT22;387;48.772;9.186;2023-11-19T01:03:40;9.60;90.80
810;DHT22;387;48.772;9.186;2023-11-19T01:06:06;9.60;90.90
810;DHT22;387;48.772;9.186;2023-11-19T01:08:33;9.60;90.90
810;DHT22;387;48.772;9.186;2023-11-19T01:11:01;9.70;90.90
810;DHT22;387;48.772;9.186;2023-11-19T01:13:27;9.70;90.90
810;DHT22;387;48.772;9.186;2023-11-19T01:15:53;9.80;90.90
810;DHT22;387;48.772;9.186;2023-11-19T01:18:18;9.80;90.80
810;DHT22;387;48.772;9.186;2023-11-19T01:20:44;9.90;90.80
810;DHT22;387;48.772;9.186;2023-11-19T01:23:10;10.00;90.80
810;DHT22;387;48.772;9.186;2023-11-19T01:25:35;10.00;90.70
810;DHT22;387;48.772;9.186;2023-11-19T01:28:01;10.00;90.40
810;DHT22;387;48.772;9.186;2023-11-19T01:30:28;10.10;90.60
810;DHT22;387;48.772;9.186;2023-11-19T01:32:53;10.10;90.60
810;DHT22;387;48.772;9.186;2023-11-19T01:35:19;10.20;90.40
810;DHT22;387;48.772;9.186;2023-11-19T01:37:44;10.20;90.30
810;DHT22;387;48.772;9.186;2023-11-19T01:40:10;10.20;90.30
810;DHT22;387;48.772;9.186;2023-11-19T01:42:40;10.30;90.30
810;DHT22;387;48.772;9.186;2023-11-19T01:45:06;10.30;90.30
810;DHT22;387;48.772;9.186;2023-11-19T01:47:35;10.20;90.20
810;DHT22;387;48.772;9.186;2023-11-19T01:50:03;10.20;90.30
810;DHT22;387;48.772;9.186;2023-11-19T01:52:32;10.20;90.30
810;DHT22;387;48.772;9.186;2023-11-19T01:54:59;10.20;90.30
810;DHT22;387;48.772;9.186;2023-11-19T01:57:25;10.20;90.40
810;DHT22;387;48.772;9.186;2023-11-19T01:59:52;10.30;90.50
810;DHT22;387;48.772;9.186;2023-11-19T02:02:18;10.30;90.60
810;DHT22;387;48.772;9.186;2023-11-19T02:04:47;10.30;90.60
810;DHT22;387;48.772;9.186;2023-11-19T02:07:14;10.40;90.60
810;DHT22;387;48.772;9.186;2023-11-19T02:09:42;10.50;90.60
810;DHT22;387;48.772;9.186;2023-11-19T02:12:08;10.40;90.40
810;DHT22;387;48.772;9.186;2023-11-19T02:14:37;10.40;90.40
810;DHT22;387;48.772;9.186;2023-11-19T02:17:03;10.40;90.40
810;DHT22;387;48.772;9.186;2023-11-19T02:19:29;10.30;90.30
810;DHT22;387;48.772;9.186;2023-11-19T02:21:55;10.30;90.30
810;DHT22;387;48.772;9.186;2023-11-19T02:24:22;10.20;90.30
810;DHT22;387;48.772;9.186;2023-11-19T02:29:49;10.20;90.50
810;DHT22;387;48.772;9.186;2023-11-19T02:32:16;10.30;90.60
810;DHT22;387;48.772;9.186;2023-11-19T02:34:41;10.20;90.60
810;DHT22;387;48.772;9.186;2023-11-19T02:37:07;10.30;90.80
810;DHT22;387;48.772;9.186;2023-11-19T02:39:33;10.30;90.80
810;DHT22;387;48.772;9.186;2023-11-19T02:41:59;10.30;90.70
810;DHT22;387;48.772;9.186;2023-11-19T02:44:25;10.30;90.70
810;DHT22;387;48.772;9.186;2023-11-19T02:46:53;10.30;90.70
810;DHT22;387;48.772;9.186;2023-11-19T02:49:19;10.20;90.80
810;DHT22;387;48.772;9.186;2023-11-19T02:51:44;10.30;90.90
810;DHT22;387;48.772;9.186;2023-11-19T02:54:10;10.30;90.90
810;DHT22;387;48.772;9.186;2023-11-19T02:56:35;10.30;90.90
810;DHT22;387;48.772;9.186;2023-11-19T02:59:02;10.30;90.90
810;DHT22;387;48.772;9.186;2023-11-19T03:01:40;10.30;90.90
810;DHT22;387;48.772;9.186;2023-11-19T03:04:09;10.40;91.00
810;DHT22;387;48.772;9.186;2023-11-19T03:06:37;10.40;91.00
810;DHT22;387;48.772;9.186;2023-11-19T03:09:03;10.50;91.00
810;DHT22;387;48.772;9.186;2023-11-19T03:11:35;10.50;91.00
810;DHT22;387;48.772;9.186;2023-11-19T03:14:00;10.40;91.00
810;DHT22;387;48.772;9.186;2023-11-19T03:16:28;10.40;91.00
810;DHT22;387;48.772;9.186;2023-11-19T03:18:53;10.40;91.00
810;DHT22;387;48.772;9.186;2023-11-19T03:21:19;10.40;91.10
810;DHT22;387;48.772;9.186;2023-11-19T03:23:45;10.40;91.10
810;DHT22;387;48.772;9.186;2023-11-19T03:26:11;10.40;91.10
810;DHT22;387;48.772;9.186;2023-11-19T03:28:37;10.50;91.10
810;DHT22;387;48.772;9.186;2023-11-19T03:31:05;10.40;91.10
810;DHT22;387;48.772;9.186;2023-11-19T03:33:33;10.40;91.10
810;DHT22;387;48.772;9.186;2023-11-19T03:35:59;10.40;91.10
810;DHT22;387;48.772;9.186;2023-11-19T03:38:24;10.40;91.20
810;DHT22;387;48.772;9.186;2023-11-19T03:40:50;10.50;91.30
810;DHT22;387;48.772;9.186;2023-11-19T03:43:16;10.60;91.40
810;DHT22;387;48.772;9.186;2023-11-19T03:45:41;10.60;91.40
810;DHT22;387;48.772;9.186;2023-11-19T03:48:07;10.60;91.30
810;DHT22;387;48.772;9.186;2023-11-19T03:50:32;10.60;91.30
810;DHT22;387;48.772;9.186;2023-11-19T03:52:58;10.70;91.30
810;DHT22;387;48.772;9.186;2023-11-19T03:55:24;10.70;91.50
810;DHT22;387;48.772;9.186;2023-11-19T03:57:50;10.70;91.30
810;DHT22;387;48.772;9.186;2023-11-19T04:00:15;10.80;91.50
810;DHT22;387;48.772;9.186;2023-11-19T04:02:41;10.80;91.30
810;DHT22;387;48.772;9.186;2023-11-19T04:05:07;10.80;91.40
810;DHT22;387;48.772;9.186;2023-11-19T04:07:33;10.80;91.30
810;DHT22;387;48.772;9.186;2023-11-19T04:09:59;11.00;91.40
810;DHT22;387;48.772;9.186;2023-11-19T04:12:25;11.00;91.10
810;DHT22;387;48.772;9.186;2023-11-19T04:14:51;11.10;90.80
810;DHT22;387;48.772;9.186;2023-11-19T04:17:17;11.20;90.30
810;DHT22;387;48.772;9.186;2023-11-19T04:19:42;11.20;90.00
810;DHT22;387;48.772;9.186;2023-11-19T04:22:08;11.20;90.00
810;DHT22;387;48.772;9.186;2023-11-19T04:24:35;11.30;89.90
810;DHT22;387;48.772;9.186;2023-11-19T04:27:00;11.30;89.60
810;DHT22;387;48.772;9.186;2023-11-19T04:29:26;11.40;89.50
810;DHT22;387;48.772;9.186;2023-11-19T04:31:51;11.40;89.20
810;DHT22;387;48.772;9.186;2023-11-19T04:34:17;11.40;89.20
810;DHT22;387;48.772;9.186;2023-11-19T04:36:42;11.50;88.90
810;DHT22;387;48.772;9.186;2023-11-19T04:39:09;11.50;88.30
810;DHT22;387;48.772;9.186;2023-11-19T04:41:46;11.50;88.30
810;DHT22;387;48.772;9.186;2023-11-19T04:44:12;11.60;88.40
810;DHT22;387;48.772;9.186;2023-11-19T04:46:37;11.60;88.40
810;DHT22;387;48.772;9.186;2023-11-19T04:49:03;11.60;88.30
810;DHT22;387;48.772;9.186;2023-11-19T04:51:30;11.60;88.30
810;DHT22;387;48.772;9.186;2023-11-19T04:53:55;11.60;88.10
810;DHT22;387;48.772;9.186;2023-11-19T04:56:21;11.60;88.30
810;DHT22;387;48.772;9.186;2023-11-19T04:58:48;11.70;88.40
810;DHT22;387;48.772;9.186;2023-11-19T05:01:14;11.70;88.40
810;DHT22;387;48.772;9.186;2023-11-19T05:03:43;11.70;88.30
810;DHT22;387;48.772;9.186;2023-11-19T05:06:09;11.70;88.30
810;DHT22;387;48.772;9.186;2023-11-19T05:08:35;11.80;88.10
810;DHT22;387;48.772;9.186;2023-11-19T05:11:01;11.80;88.00
810;DHT22;387;48.772;9.186;2023-11-19T05:13:26;11.90;88.00
810;DHT22;387;48.772;9.186;2023-11-19T05:15:52;11.90;88.00
810;DHT22;387;48.772;9.186;2023-11-19T05:18:17;11.90;87.80
810;DHT22;387;48.772;9.186;2023-11-19T05:20:44;11.90;87.80
810;DHT22;387;48.772;9.186;2023-11-19T05:23:10;11.90;87.80
810;DHT22;387;48.772;9.186;2023-11-19T05:25:37;11.90;88.00
810;DHT22;387;48.772;9.186;2023-11-19T05:28:02;11.90;87.70
810;DHT22;387;48.772;9.186;2023-11-19T05:30:28;11.90;87.70
810;DHT22;387;48.772;9.186;2023-11-19T05:32:53;11.90;87.70
810;DHT22;387;48.772;9.186;2023-11-19T05:35:19;11.90;87.70
810;DHT22;387;48.772;9.186;2023-11-19T05:37:44;11.90;87.80
810;DHT22;387;48.772;9.186;2023-11-19T05:40:10;11.90;87.70
810;DHT22;387;48.772;9.186;2023-11-19T05:42:42;11.90;87.80
810;DHT22;387;48.772;9.186;2023-11-19T05:45:11;12.00;87.70
810;DHT22;387;48.772;9.186;2023-11-19T05:47:37;12.00;87.70
810;DHT22;387;48.772;9.186;2023-11-19T05:50:02;12.00;87.70
810;DHT22;387;48.772;9.186;2023-11-19T05:52:30;12.00;87.70
810;DHT22;387;48.772;9.186;2023-11-19T05:55:02;12.00;87.60
810;DHT22;387;48.772;9.186;2023-11-19T05:57:35;12.00;87.60
810;DHT22;387;48.772;9.186;2023-11-19T06:00:00;12.00;87.60
810;DHT22;387;48.772;9.186;2023-11-19T06:02:26;12.00;87.70
810;DHT22;387;48.772;9.186;2023-11-19T06:04:53;12.10;87.70
810;DHT22;387;48.772;9.186;2023-11-19T06:07:18;12.10;87.70
810;DHT22;387;48.772;9.186;2023-11-19T06:09:45;12.10;87.70
810;DHT22;387;48.772;9.186;2023-11-19T06:12:10;12.10;87.60
810;DHT22;387;48.772;9.186;2023-11-19T06:14:36;12.20;87.30
810;DHT22;387;48.772;9.186;2023-11-19T06:17:01;12.20;87.30
810;DHT22;387;48.772;9.186;2023-11-19T06:19:29;12.20;87.00
810;DHT22;387;48.772;9.186;2023-11-19T06:21:55;12.30;86.90
810;DHT22;387;48.772;9.186;2023-11-19T06:24:20;12.30;86.80
810;DHT22;387;48.772;9.186;2023-11-19T06:26:46;12.30;86.60
810;DHT22;387;48.772;9.186;2023-11-19T06:29:11;12.30;86.50
810;DHT22;387;48.772;9.186;2023-11-19T06:31:40;12.30;86.50
810;DHT22;387;48.772;9.186;2023-11-19T06:34:06;12.30;86.50
810;DHT22;387;48.772;9.186;2023-11-19T06:36:32;12.30;86.60
810;DHT22;387;48.772;9.186;2023-11-19T06:38:57;12.30;86.80
810;DHT22;387;48.772;9.186;2023-11-19T06:41:23;12.30;86.90
810;DHT22;387;48.772;9.186;2023-11-19T06:43:48;12.30;87.00
810;DHT22;387;48.772;9.186;2023-11-19T06:46:15;12.30;87.10
810;DHT22;387;48.772;9.186;2023-11-19T06:48:41;12.20;87.30
810;DHT22;387;48.772;9.186;2023-11-19T06:51:09;12.20;87.60
810;DHT22;387;48.772;9.186;2023-11-19T06:53:35;12.20;87.60
810;DHT22;387;48.772;9.186;2023-11-19T06:56:01;12.20;87.40
810;DHT22;387;48.772;9.186;2023-11-19T06:58:30;12.20;87.60
810;DHT22;387;48.772;9.186;2023-11-19T07:00:56;12.20;87.40
810;DHT22;387;48.772;9.186;2023-11-19T07:03:22;12.20;87.60
810;DHT22;387;48.772;9.186;2023-11-19T07:05:47;12.20;87.60
810;DHT22;387;48.772;9.186;2023-11-19T07:08:14;12.20;87.60
810;DHT22;387;48.772;9.186;2023-11-19T07:10:39;12.20;87.60
810;DHT22;387;48.772;9.186;2023-11-19T07:13:06;12.20;87.60
810;DHT22;387;48.772;9.186;2023-11-19T07:15:31;12.20;87.40
810;DHT22;387;48.772;9.186;2023-11-19T07:17:58;12.20;87.30
810;DHT22;387;48.772;9.186;2023-11-19T07:20:25;12.20;87.30
810;DHT22;387;48.772;9.186;2023-11-19T07:22:52;12.20;87.30
810;DHT22;387;48.772;9.186;2023-11-19T07:25:17;12.30;87.10
810;DHT22;387;48.772;9.186;2023-11-19T07:27:43;12.30;86.90
810;DHT22;387;48.772;9.186;2023-11-19T07:30:09;12.40;86.60
810;DHT22;387;48.772;9.186;2023-11-19T07:32:35;12.50;86.50
810;DHT22;387;48.772;9.186;2023-11-19T07:35:01;12.50;86.00
810;DHT22;387;48.772;9.186;2023-11-19T07:37:26;12.70;85.60
810;DHT22;387;48.772;9.186;2023-11-19T07:39:52;12.80;84.90
810;DHT22;387;48.772;9.186;2023-11-19T07:42:17;12.90;84.40
810;DHT22;387;48.772;9.186;2023-11-19T07:44:43;12.90;84.60
810;DHT22;387;48.772;9.186;2023-11-19T07:47:09;12.80;85.00
810;DHT22;387;48.772;9.186;2023-11-19T07:49:35;12.80;85.20
810;DHT22;387;48.772;9.186;2023-11-19T07:52:01;12.70;85.30
810;DHT22;387;48.772;9.186;2023-11-19T07:54:28;12.80;85.50
810;DHT22;387;48.772;9.186;2023-11-19T07:56:54;12.70;85.50
810;DHT22;387;48.772;9.186;2023-11-19T07:59:19;12.80;85.50
810;DHT22;387;48.772;9.186;2023-11-19T08:01:45;12.80;85.20
810;DHT22;387;48.772;9.186;2023-11-19T08:04:11;12.80;85.30
810;DHT22;387;48.772;9.186;2023-11-19T08:06:36;12.80;85.30
810;DHT22;387;48.772;9.186;2023-11-19T08:09:02;12.80;85.30
810;DHT22;387;48.772;9.186;2023-11-19T08:11:28;12.90;85.20
810;DHT22;387;48.772;9.186;2023-11-19T08:13:53;12.90;84.90
810;DHT22;387;48.772;9.186;2023-11-19T08:16:19;13.00;84.40
810;DHT22;387;48.772;9.186;2023-11-19T08:18:44;13.10;84.30
810;DHT22;387;48.772;9.186;2023-11-19T08:21:10;13.10;84.30
810;DHT22;387;48.772;9.186;2023-11-19T08:23:36;13.10;84.40
810;DHT22;387;48.772;9.186;2023-11-19T08:26:03;13.00;84.40
810;DHT22;387;48.772;9.186;2023-11-19T08:28:29;13.00;84.60
810;DHT22;387;48.772;9.186;2023-11-19T08:30:56;13.00;84.70
810;DHT22;387;48.772;9.186;2023-11-19T08:33:22;13.00;84.70
810;DHT22;387;48.772;9.186;2023-11-19T08:35:48;13.10;84.60
810;DHT22;387;48.772;9.186;2023-11-19T08:38:13;13.20;84.40
810;DHT22;387;48.772;9.186;2023-11-19T08:40:39;13.20;84.30
810;DHT22;387;48.772;9.186;2023-11-19T08:43:05;13.30;84.30
810;DHT22;387;48.772;9.186;2023-11-19T08:45:31;13.30;84.30
810;DHT22;387;48.772;9.186;2023-11-19T08:47:57;13.40;83.80
810;DHT22;387;48.772;9.186;2023-11-19T08:50:23;13.40;83.80
810;DHT22;387;48.772;9.186;2023-11-19T08:52:49;13.50;83.40
810;DHT22;387;48.772;9.186;2023-11-19T08:55:14;13.50;83.40
810;DHT22;387;48.772;9.186;2023-11-19T08:57:40;13.50;83.40
810;DHT22;387;48.772;9.186;2023-11-19T09:00:06;13.50;83.60
810;DHT22;387;48.772;9.186;2023-11-19T09:02:35;13.50;83.60
810;DHT22;387;48.772;9.186;2023-11-19T09:05:02;13.50;83.80
810;DHT22;387;48.772;9.186;2023-11-19T09:07:28;13.60;83.80
810;DHT22;387;48.772;9.186;2023-11-19T09:09:54;13.60;83.60
810;DHT22;387;48.772;9.186;2023-11-19T09:12:19;13.70;83.60
810;DHT22;387;48.772;9.186;2023-11-19T09:14:45;13.70;83.30
810;DHT22;387;48.772;9.186;2023-11-19T09:17:11;13.80;83.30
810;DHT22;387;48.772;9.186;2023-11-19T09:19:37;13.90;82.80
810;DHT22;387;48.772;9.186;2023-11-19T09:22:03;14.00;82.80
810;DHT22;387;48.772;9.186;2023-11-19T09:24:29;14.00;82.10
810;DHT22;387;48.772;9.186;2023-11-19T09:26:54;14.00;81.80
810;DHT22;387;48.772;9.186;2023-11-19T09:29:21;14.10;81.80
810;DHT22;387;48.772;9.186;2023-11-19T09:31:47;14.10;81.70
810;DHT22;387;48.772;9.186;2023-11-19T09:34:12;14.20;81.20
810;DHT22;387;48.772;9.186;2023-11-19T09:36:38;14.20;81.20
810;DHT22;387;48.772;9.186;2023-11-19T09:39:04;14.30;80.90
810;DHT22;387;48.772;9.186;2023-11-19T09:41:31;14.40;80.80
810;DHT22;387;48.772;9.186;2023-11-19T09:43:58;14.50;80.50
810;DHT22;387;48.772;9.186;2023-11-19T09:46:23;14.50;80.50
810;DHT22;387;48.772;9.186;2023-11-19T09:48:53;14.60;80.30
810;DHT22;387;48.772;9.186;2023-11-19T09:51:20;14.60;80.30
810;DHT22;387;48.772;9.186;2023-11-19T09:53:45;14.60;80.20
810;DHT22;387;48.772;9.186;2023-11-19T09:56:12;14.60;80.30
810;DHT22;387;48.772;9.186;2023-11-19T09:58:38;14.70;79.60
810;DHT22;387;48.772;9.186;2023-11-19T10:01:04;14.80;79.30
810;DHT22;387;48.772;9.186;2023-11-19T10:03:34;14.80;79.50
810;DHT22;387;48.772;9.186;2023-11-19T10:06:06;14.90;79.50
810;DHT22;387;48.772;9.186;2023-11-19T10:08:32;15.00;79.30
810;DHT22;387;48.772;9.186;2023-11-19T10:10:58;15.10;79.20
810;DHT22;387;48.772;9.186;2023-11-19T10:13:28;15.20;78.40
810;DHT22;387;48.772;9.186;2023-11-19T10:15:55;15.20;77.80
810;DHT22;387;48.772;9.186;2023-11-19T10:18:26;15.30;78.10
810;DHT22;387;48.772;9.186;2023-11-19T10:20:52;15.40;77.60
810;DHT22;387;48.772;9.186;2023-11-19T10:23:18;15.50;77.30
810;DHT22;387;48.772;9.186;2023-11-19T10:25:43;15.60;77.60
810;DHT22;387;48.772;9.186;2023-11-19T10:28:09;15.80;77.30
810;DHT22;387;48.772;9.186;2023-11-19T10:30:34;15.90;76.70
810;DHT22;387;48.772;9.186;2023-11-19T10:33:06;15.90;77.00
810;DHT22;387;48.772;9.186;2023-11-19T10:35:52;15.80;76.70
810;DHT22;387;48.772;9.186;2023-11-19T10:38:19;15.60;77.40
810;DHT22;387;48.772;9.186;2023-11-19T10:40:45;15.70;77.40
810;DHT22;387;48.772;9.186;2023-11-19T10:43:10;15.70;77.80
810;DHT22;387;48.772;9.186;2023-11-19T10:45:37;15.80;76.40
810;DHT22;387;48.772;9.186;2023-11-19T10:48:04;15.80;76.50
810;DHT22;387;48.772;9.186;2023-11-19T10:50:33;16.00;76.10
810;DHT22;387;48.772;9.186;2023-11-19T10:53:00;16.30;75.50
810;DHT22;387;48.772;9.186;2023-11-19T10:55:33;16.60;73.00
810;DHT22;387;48.772;9.186;2023-11-19T10:58:07;16.70;72.10
810;DHT22;387;48.772;9.186;2023-11-19T11:01:18;16.70;72.60
810;DHT22;387;48.772;9.186;2023-11-19T11:03:39;16.70;71.40
810;DHT22;387;48.772;9.186;2023-11-19T11:06:05;16.80;71.40
810;DHT22;387;48.772;9.186;2023-11-19T11:08:31;16.70;71.40
810;DHT22;387;48.772;9.186;2023-11-19T11:11:00;16.80;70.10
810;DHT22;387;48.772;9.186;2023-11-19T11:13:27;16.70;70.80
810;DHT22;387;48.772;9.186;2023-11-19T11:15:55;16.70;69.70
810;DHT22;387;48.772;9.186;2023-11-19T11:18:24;16.50;70.50
810;DHT22;387;48.772;9.186;2023-11-19T11:21:05;16.40;69.50
810;DHT22;387;48.772;9.186;2023-11-19T11:26:42;16.20;67.60
810;DHT22;387;48.772;9.186;2023-11-19T11:29:29;16.20;67.50
810;DHT22;387;48.772;9.186;2023-11-19T11:32:24;16.10;66.70
810;DHT22;387;48.772;9.186;2023-11-19T11:38:08;16.00;67.50
810;DHT22;387;48.772;9.186;2023-11-19T11:40:34;15.90;67.50
810;DHT22;387;48.772;9.186;2023-11-19T11:43:00;16.00;67.70
810;DHT22;387;48.772;9.186;2023-11-19T11:45:41;15.90;67.90
810;DHT22;387;48.772;9.186;2023-11-19T11:48:12;15.80;68.20
810;DHT22;387;48.772;9.186;2023-11-19T11:50:51;15.70;67.90
810;DHT22;387;48.772;9.186;2023-11-19T11:53:18;15.90;67.70
810;DHT22;387;48.772;9.186;2023-11-19T11:58:17;16.10;67.60
810;DHT22;387;48.772;9.186;2023-11-19T12:00:42;16.20;67.30
810;DHT22;387;48.772;9.186;2023-11-19T12:03:09;16.20;67.60
810;DHT22;387;48.772;9.186;2023-11-19T12:05:44;16.40;67.50
810;DHT22;387;48.772;9.186;2023-11-19T12:08:12;16.50;66.60
810;DHT22;387;48.772;9.186;2023-11-19T12:10:50;16.40;66.90
810;DHT22;387;48.772;9.186;2023-11-19T12:13:17;16.40;66.90
810;DHT22;387;48.772;9.186;2023-11-19T12:18:29;16.50;67.60
810;DHT22;387;48.772;9.186;2023-11-19T12:20:55;16.60;67.20
810;DHT22;387;48.772;9.186;2023-11-19T12:23:23;16.60;66.70
810;DHT22;387;48.772;9.186;2023-11-19T12:25:49;16.70;66.70
810;DHT22;387;48.772;9.186;2023-11-19T12:28:15;16.80;66.30
810;DHT22;387;48.772;9.186;2023-11-19T12:30:45;16.80;66.00
810;DHT22;387;48.772;9.186;2023-11-19T12:33:12;16.70;65.80
810;DHT22;387;48.772;9.186;2023-11-19T12:35:42;16.60;66.10
810;DHT22;387;48.772;9.186;2023-11-19T12:38:08;16.50;66.40
810;DHT22;387;48.772;9.186;2023-11-19T12:40:35;16.60;65.60
810;DHT22;387;48.772;9.186;2023-11-19T12:43:01;16.80;64.50
810;DHT22;387;48.772;9.186;2023-11-19T12:45:36;17.00;64.40
810;DHT22;387;48.772;9.186;2023-11-19T12:48:05;16.80;63.90
810;DHT22;387;48.772;9.186;2023-11-19T12:50:56;16.60;65.30
810;DHT22;387;48.772;9.186;2023-11-19T12:53:23;16.60;65.60
810;DHT22;387;48.772;9.186;2023-11-19T12:55:50;16.60;65.80
810;DHT22;387;48.772;9.186;2023-11-19T13:01:02;16.60;65.60
810;DHT22;387;48.772;9.186;2023-11-19T13:03:32;16.70;65.70
810;DHT22;387;48.772;9.186;2023-11-19T13:06:02;16.50;65.30
810;DHT22;387;48.772;9.186;2023-11-19T13:08:35;16.60;65.60
810;DHT22;387;48.772;9.186;2023-11-19T13:11:01;16.70;65.70
810;DHT22;387;48.772;9.186;2023-11-19T13:13:26;16.70;65.70
810;DHT22;387;48.772;9.186;2023-11-19T13:15:52;16.70;65.30
810;DHT22;387;48.772;9.186;2023-11-19T13:18:17;16.70;64.70
810;DHT22;387;48.772;9.186;2023-11-19T13:20:43;16.80;64.40
810;DHT22;387;48.772;9.186;2023-11-19T13:23:09;16.70;63.70
810;DHT22;387;48.772;9.186;2023-11-19T13:25:35;16.70;63.90
810;DHT22;387;48.772;9.186;2023-11-19T13:28:01;16.80;64.10
810;DHT22;387;48.772;9.186;2023-11-19T13:30:27;17.00;63.70
810;DHT22;387;48.772;9.186;2023-11-19T13:32:53;17.00;63.20
810;DHT22;387;48.772;9.186;2023-11-19T13:35:20;16.90;63.10
810;DHT22;387;48.772;9.186;2023-11-19T13:37:46;16.90;63.70
810;DHT22;387;48.772;9.186;2023-11-19T13:40:12;16.90;63.50
810;DHT22;387;48.772;9.186;2023-11-19T13:42:42;16.80;63.50
810;DHT22;387;48.772;9.186;2023-11-19T13:45:12;16.70;64.10
810;DHT22;387;48.772;9.186;2023-11-19T13:47:45;16.50;64.70
810;DHT22;387;48.772;9.186;2023-11-19T13:50:12;16.20;64.80
810;DHT22;387;48.772;9.186;2023-11-19T13:52:39;16.10;65.40
810;DHT22;387;48.772;9.186;2023-11-19T13:55:09;16.20;65.70
810;DHT22;387;48.772;9.186;2023-11-19T13:57:35;16.10;66.00
810;DHT22;387;48.772;9.186;2023-11-19T14:00:03;16.00;65.80
810;DHT22;387;48.772;9.186;2023-11-19T14:02:34;16.00;65.70
810;DHT22;387;48.772;9.186;2023-11-19T14:05:00;15.90;65.60
810;DHT22;387;48.772;9.186;2023-11-19T14:07:26;15.90;65.30
810;DHT22;387;48.772;9.186;2023-11-19T14:09:52;15.90;65.40
810;DHT22;387;48.772;9.186;2023-11-19T14:12:17;15.90;65.30
810;DHT22;387;48.772;9.186;2023-11-19T14:14:43;15.80;65.30
810;DHT22;387;48.772;9.186;2023-11-19T14:17:09;15.70;64.50
810;DHT22;387;48.772;9.186;2023-11-19T14:19:36;15.70;65.30
810;DHT22;387;48.772;9.186;2023-11-19T14:22:02;15.70;65.40
810;DHT22;387;48.772;9.186;2023-11-19T14:24:28;15.70;65.70
810;DHT22;387;48.772;9.186;2023-11-19T14:26:53;15.70;65.40
810;DHT22;387;48.772;9.186;2023-11-19T14:29:19;15.70;65.40
810;DHT22;387;48.772;9.186;2023-11-19T14:31:44;15.70;65.60
810;DHT22;387;48.772;9.186;2023-11-19T14:34:10;15.70;65.10
810;DHT22;387;48.772;9.186;2023-11-19T14:36:35;15.70;65.30
810;DHT22;387;48.772;9.186;2023-11-19T14:39:01;15.70;65.60
810;DHT22;387;48.772;9.186;2023-11-19T14:41:27;15.70;65.60
810;DHT22;387;48.772;9.186;2023-11-19T14:43:52;15.80;65.70
810;DHT22;387;48.772;9.186;2023-11-19T14:46:18;15.80;65.40
810;DHT22;387;48.772;9.186;2023-11-19T14:48:44;15.60;65.80
810;DHT22;387;48.772;9.186;2023-11-19T14:51:10;15.60;66.10
810;DHT22;387;48.772;9.186;2023-11-19T14:53:35;15.60;66.10
810;DHT22;387;48.772;9.186;2023-11-19T14:56:01;15.50;66.60
810;DHT22;387;48.772;9.186;2023-11-19T14:58:27;15.50;66.60
810;DHT22;387;48.772;9.186;2023-11-19T15:00:53;15.50;66.70
810;DHT22;387;48.772;9.186;2023-11-19T15:03:18;15.40;66.70
810;DHT22;387;48.772;9.186;2023-11-19T15:05:47;15.40;66.70
810;DHT22;387;48.772;9.186;2023-11-19T15:08:13;15.30;67.30
810;DHT22;387;48.772;9.186;2023-11-19T15:10:42;15.20;67.30
810;DHT22;387;48.772;9.186;2023-11-19T15:13:07;15.20;66.70
810;DHT22;387;48.772;9.186;2023-11-19T15:15:34;15.10;67.00
810;DHT22;387;48.772;9.186;2023-11-19T15:18:00;15.10;66.70
810;DHT22;387;48.772;9.186;2023-11-19T15:20:26;15.00;67.20
810;DHT22;387;48.772;9.186;2023-11-19T15:22:58;15.00;66.90
810;DHT22;387;48.772;9.186;2023-11-19T15:25:24;14.90;66.70
810;DHT22;387;48.772;9.186;2023-11-19T15:27:49;14.90;66.60
810;DHT22;387;48.772;9.186;2023-11-19T15:30:15;14.90;66.60
810;DHT22;387;48.772;9.186;2023-11-19T15:32:42;14.90;66.30
810;DHT22;387;48.772;9.186;2023-11-19T15:35:09;14.80;66.40
810;DHT22;387;48.772;9.186;2023-11-19T15:37:38;14.80;66.60
810;DHT22;387;48.772;9.186;2023-11-19T15:40:06;14.70;66.90
810;DHT22;387;48.772;9.186;2023-11-19T15:42:34;14.60;66.90
810;DHT22;387;48.772;9.186;2023-11-19T15:45:00;14.60;67.20
810;DHT22;387;48.772;9.186;2023-11-19T15:47:25;14.60;67.20
810;DHT22;387;48.772;9.186;2023-11-19T15:49:51;14.60;67.20
810;DHT22;387;48.772;9.186;2023-11-19T15:52:16;14.50;67.30
810;DHT22;387;48.772;9.186;2023-11-19T15:54:42;14.50;67.50
810;DHT22;387;48.772;9.186;2023-11-19T15:57:08;14.40;67.60
810;DHT22;387;48.772;9.186;2023-11-19T15:59:33;14.40;67.70
810;DHT22;387;48.772;9.186;2023-11-19T16:01:59;14.40;67.60
810;DHT22;387;48.772;9.186;2023-11-19T16:04:25;14.40;67.70
810;DHT22;387;48.772;9.186;2023-11-19T16:06:50;14.30;67.60
810;DHT22;387;48.772;9.186;2023-11-19T16:09:16;14.30;67.90
810;DHT22;387;48.772;9.186;2023-11-19T16:11:48;14.30;67.70
810;DHT22;387;48.772;9.186;2023-11-19T16:14:13;14.30;67.70
810;DHT22;387;48.772;9.186;2023-11-19T16:16:40;14.30;67.70
810;DHT22;387;48.772;9.186;2023-11-19T16:19:06;14.20;67.70
810;DHT22;387;48.772;9.186;2023-11-19T16:21:33;14.20;68.20
810;DHT22;387;48.772;9.186;2023-11-19T16:24:03;14.20;68.20
810;DHT22;387;48.772;9.186;2023-11-19T16:26:30;14.10;68.30
810;DHT22;387;48.772;9.186;2023-11-19T16:29:00;14.10;68.50
810;DHT22;387;48.772;9.186;2023-11-19T16:31:26;14.00;68.60
810;DHT22;387;48.772;9.186;2023-11-19T16:33:52;14.00;68.60
810;DHT22;387;48.772;9.186;2023-11-19T16:36:17;13.90;68.80
810;DHT22;387;48.772;9.186;2023-11-19T16:38:43;14.00;68.90
810;DHT22;387;48.772;9.186;2023-11-19T16:41:10;13.80;68.90
810;DHT22;387;48.772;9.186;2023-11-19T16:43:37;13.80;69.10
810;DHT22;387;48.772;9.186;2023-11-19T16:46:03;13.80;69.20
810;DHT22;387;48.772;9.186;2023-11-19T16:48:29;13.80;69.40
810;DHT22;387;48.772;9.186;2023-11-19T16:50:54;13.70;69.50